createdAt,value
2018-12-17T00:01:30.793Z,101177.97
2018-12-17T00:03:56.804Z,101176.34
2018-12-17T00:06:22.832Z,101176.34
2018-12-17T00:08:48.836Z,101179.05
2018-12-17T00:11:14.780Z,101188.23
2018-12-17T00:13:40.785Z,101188.77
2018-12-17T00:16:06.700Z,101182.31
2018-12-17T00:18:32.645Z,101188.52
2018-12-17T00:20:58.653Z,101189.87
2018-12-17T00:23:24.688Z,101182.61
2018-12-17T00:25:50.683Z,101179.37
2018-12-17T00:28:16.649Z,101178.31
2018-12-17T00:30:42.640Z,101184.83
2018-12-17T00:33:08.577Z,101194.81
2018-12-17T00:35:34.576Z,101197.52
2018-12-17T00:38:00.536Z,101193.76
2018-12-17T00:40:26.521Z,101197.00
2018-12-17T00:42:52.469Z,101202.64
2018-12-17T00:45:18.463Z,101192.13
2018-12-17T00:47:44.412Z,101194.05
2018-12-17T00:50:10.416Z,101199.70
2018-12-17T00:52:36.580Z,101194.34
2018-12-17T00:55:02.897Z,101197.59
2018-12-17T00:57:28.892Z,101201.39
2018-12-17T00:59:54.827Z,101204.34
2018-12-17T01:02:20.840Z,101211.09
2018-12-17T01:04:46.872Z,101210.03
2018-12-17T01:07:12.872Z,101214.90
2018-12-17T01:09:38.828Z,101217.32
2018-12-17T01:12:04.825Z,101218.67
2018-12-17T01:14:30.764Z,101213.56
2018-12-17T01:16:56.771Z,101226.77
2018-12-17T01:19:22.919Z,101219.50
2018-12-17T01:21:48.912Z,101224.91
2018-12-17T01:24:14.986Z,101224.41
2018-12-17T01:26:41.058Z,101230.06
2018-12-17T01:29:07.047Z,101224.95
2018-12-17T01:31:33.108Z,101216.63
2018-12-17T01:33:59.048Z,101213.34
2018-12-17T01:36:25.057Z,101213.09
2018-12-17T01:38:51.104Z,101212.28
2018-12-17T01:41:17.096Z,101223.09
2018-12-17T01:43:43.052Z,101218.79
2018-12-17T01:46:09.032Z,101216.63
2018-12-17T01:48:34.960Z,101211.47
2018-12-17T01:51:00.897Z,101210.41
2018-12-17T01:53:26.896Z,101207.72
2018-12-17T01:55:52.844Z,101211.77
2018-12-17T01:58:18.844Z,101213.41
2018-12-17T02:00:44.800Z,101214.22
2018-12-17T02:03:10.785Z,101212.92
2018-12-17T02:05:36.728Z,101220.73
2018-12-17T02:08:02.748Z,101223.72
2018-12-17T02:10:28.776Z,101223.97
2018-12-17T02:12:54.776Z,101228.26
2018-12-17T02:15:20.725Z,101232.88
2018-12-17T02:17:46.732Z,101233.95
2018-12-17T02:20:12.768Z,101243.69
2018-12-17T02:22:38.776Z,101247.20
2018-12-17T02:25:04.821Z,101244.52
2018-12-17T02:27:30.824Z,101246.15
2018-12-17T02:29:56.856Z,101241.83
2018-12-17T02:32:22.770Z,101231.84
2018-12-17T02:34:48.800Z,101234.83
2018-12-17T02:37:14.807Z,101237.77
2018-12-17T02:39:40.834Z,101248.03
2018-12-17T02:42:06.880Z,101250.48
2018-12-17T02:44:32.977Z,101252.38
2018-12-17T02:46:58.916Z,101251.56
2018-12-17T02:49:24.933Z,101253.97
2018-12-17T02:51:50.965Z,101253.20
2018-12-17T02:54:16.968Z,101264.00
2018-12-17T02:56:43.025Z,101266.98
2018-12-17T02:59:09.012Z,101254.55
2018-12-17T03:01:34.952Z,101256.72
2018-12-17T03:04:00.957Z,101268.88
2018-12-17T03:06:26.897Z,101269.41
2018-12-17T03:08:52.913Z,101266.45
2018-12-17T03:11:19.053Z,101261.88
2018-12-17T03:13:45.041Z,101264.30
2018-12-17T03:16:10.993Z,101275.63
2018-12-17T03:18:36.988Z,101282.66
2018-12-17T03:21:02.928Z,101275.09
2018-12-17T03:23:28.936Z,101282.66
2018-12-17T03:25:54.989Z,101279.14
2018-12-17T03:28:20.992Z,101272.69
2018-12-17T03:30:47.130Z,101279.68
2018-12-17T03:33:13.049Z,101271.63
2018-12-17T03:35:39.053Z,101277.84
2018-12-17T03:38:04.993Z,101281.37
2018-12-17T03:40:30.997Z,101303.48
2018-12-17T03:42:57.032Z,101301.86
2018-12-17T03:45:23.037Z,101295.92
2018-12-17T03:47:48.976Z,101292.41
2018-12-17T03:50:14.984Z,101297.81
2018-12-17T03:52:41.024Z,101299.16
2018-12-17T03:55:07.034Z,101306.72
2018-12-17T03:57:33.067Z,101305.13
2018-12-17T03:59:59.072Z,101304.02
2018-12-17T04:02:25.019Z,101296.75
2018-12-17T04:04:51.020Z,101297.56
2018-12-17T04:07:17.060Z,101299.45
2018-12-17T04:09:43.064Z,101302.16
2018-12-17T04:12:09.021Z,101298.67
2018-12-17T04:14:35.010Z,101297.32
2018-12-17T04:17:01.054Z,101297.86
2018-12-17T04:19:27.158Z,101300.84
2018-12-17T04:21:53.092Z,101299.74
2018-12-17T04:24:19.168Z,101301.37
2018-12-17T04:26:45.249Z,101302.44
2018-12-17T04:29:11.356Z,101312.70
2018-12-17T04:31:37.477Z,101313.81
2018-12-17T04:34:03.436Z,101324.31
2018-12-17T04:36:29.428Z,101330.25
2018-12-17T04:38:55.564Z,101325.67
2018-12-17T04:41:21.564Z,101318.91
2018-12-17T04:43:47.505Z,101325.14
2018-12-17T04:46:13.508Z,101336.47
2018-12-17T04:48:39.452Z,101331.35
2018-12-17T04:51:05.448Z,101327.84
2018-12-17T04:53:31.397Z,101336.19
2018-12-17T04:55:57.512Z,101337.53
2018-12-17T04:58:23.541Z,101349.96
2018-12-17T05:00:49.546Z,101348.32
2018-12-17T05:03:15.587Z,101348.86
2018-12-17T05:05:41.657Z,101348.86
2018-12-17T05:08:07.637Z,101358.06
2018-12-17T05:10:33.658Z,101363.45
2018-12-17T05:12:59.680Z,101364.81
2018-12-17T05:15:25.692Z,101363.45
2018-12-17T05:17:51.748Z,101370.74
2018-12-17T05:20:17.733Z,101370.74
2018-12-17T05:22:43.697Z,101379.37
2018-12-17T05:25:09.677Z,101372.62
2018-12-17T05:27:35.793Z,101382.06
2018-12-17T05:30:01.752Z,101384.77
2018-12-17T05:32:27.736Z,101378.02
2018-12-17T05:34:53.685Z,101381.01
2018-12-17T05:37:19.689Z,101391.80
2018-12-17T05:39:46.048Z,101392.05
2018-12-17T05:42:12.036Z,101390.41
2018-12-17T05:44:38.082Z,101394.75
2018-12-17T05:47:04.199Z,101401.25
2018-12-17T05:49:30.246Z,101400.69
2018-12-17T05:51:56.243Z,101397.45
2018-12-17T05:54:22.380Z,101405.55
2018-12-17T05:56:48.381Z,101407.72
2018-12-17T05:59:14.325Z,101407.44
2018-12-17T06:01:40.324Z,101410.13
2018-12-17T06:04:06.269Z,101412.30
2018-12-17T06:06:32.276Z,101413.65
2018-12-17T06:08:58.319Z,101413.65
2018-12-17T06:11:24.311Z,101418.80
2018-12-17T06:13:50.255Z,101422.56
2018-12-17T06:16:16.255Z,101427.39
2018-12-17T06:18:42.225Z,101427.39
2018-12-17T06:21:08.309Z,101429.03
2018-12-17T06:23:34.329Z,101430.95
2018-12-17T06:26:00.372Z,101436.34
2018-12-17T06:28:26.370Z,101439.33
2018-12-17T06:30:52.320Z,101436.34
2018-12-17T06:33:18.240Z,101428.53
2018-12-17T06:35:44.369Z,101432.84
2018-12-17T06:38:10.360Z,101445.27
2018-12-17T06:40:36.300Z,101448.50
2018-12-17T06:43:02.299Z,101458.77
2018-12-17T06:45:28.243Z,101462.28
2018-12-17T06:47:54.249Z,101471.16
2018-12-17T06:50:20.187Z,101464.98
2018-12-17T06:52:46.192Z,101468.50
2018-12-17T06:55:12.128Z,101469.03
2018-12-17T06:57:38.133Z,101470.14
2018-12-17T07:00:04.125Z,101467.97
2018-12-17T07:02:30.080Z,101469.57
2018-12-17T07:04:56.022Z,101482.53
2018-12-17T07:07:22.026Z,101479.30
2018-12-17T07:09:47.944Z,101487.12
2018-12-17T07:12:13.943Z,101489.57
2018-12-17T07:14:39.980Z,101496.31
2018-12-17T07:17:05.940Z,101502.81
2018-12-17T07:19:31.932Z,101498.52
2018-12-17T07:21:57.881Z,101509.56
2018-12-17T07:24:23.980Z,101506.30
2018-12-17T07:26:49.936Z,101508.75
2018-12-17T07:29:15.928Z,101511.45
2018-12-17T07:31:42.065Z,101513.08
2018-12-17T07:34:07.976Z,101520.64
2018-12-17T07:36:34.108Z,101521.18
2018-12-17T07:39:00.116Z,101519.83
2018-12-17T07:41:26.059Z,101529.81
2018-12-17T07:43:52.165Z,101532.80
2018-12-17T07:46:18.111Z,101528.22
2018-12-17T07:48:44.204Z,101526.58
2018-12-17T07:51:10.144Z,101529.56
2018-12-17T07:53:36.153Z,101524.70
2018-12-17T07:56:02.097Z,101534.43
2018-12-17T07:58:28.100Z,101541.43
2018-12-17T08:00:54.264Z,101545.48
2018-12-17T08:03:20.250Z,101549.27
2018-12-17T08:05:46.264Z,101544.12
2018-12-17T08:08:12.209Z,101538.73
2018-12-17T08:10:38.211Z,101543.34
2018-12-17T08:13:04.157Z,101530.91
2018-12-17T08:15:30.264Z,101537.41
2018-12-17T08:18:09.877Z,101541.74
2018-12-17T08:20:35.924Z,101539.01
2018-12-17T08:23:01.870Z,101538.97
2018-12-17T08:25:27.977Z,101540.53
2018-12-17T08:27:54.028Z,101543.48
2018-12-17T08:30:20.021Z,101538.08
2018-12-17T08:32:46.060Z,101548.56
2018-12-17T08:35:12.062Z,101559.89
2018-12-17T08:37:38.001Z,101555.77
2018-12-17T08:40:04.139Z,101559.28
2018-12-17T08:42:30.256Z,101553.30
2018-12-17T08:44:56.257Z,101550.28
2018-12-17T08:47:22.176Z,101543.52
2018-12-17T08:49:48.124Z,101546.75
2018-12-17T08:52:14.134Z,101547.25
2018-12-17T08:54:40.161Z,101546.70
2018-12-17T08:57:06.176Z,101555.30
2018-12-17T08:59:32.309Z,101560.70
2018-12-17T09:01:58.317Z,101577.11
2018-12-17T09:04:24.360Z,101580.88
2018-12-17T09:06:50.465Z,101576.28
2018-12-17T09:09:16.404Z,101581.89
2018-12-17T09:11:42.413Z,101576.20
2018-12-17T09:14:08.491Z,101582.70
2018-12-17T09:16:34.453Z,101585.70
2018-12-17T09:19:00.393Z,101592.99
2018-12-17T09:21:26.396Z,101596.95
2018-12-17T09:23:52.417Z,101595.03
2018-12-17T09:26:18.461Z,101597.19
2018-12-17T09:28:44.469Z,101595.26
2018-12-17T09:31:10.508Z,101588.79
2018-12-17T09:33:36.437Z,101590.63
2018-12-17T09:36:02.572Z,101602.22
2018-12-17T09:38:28.560Z,101595.69
2018-12-17T09:40:54.612Z,101600.82
2018-12-17T09:43:20.704Z,101601.88
2018-12-17T09:45:46.668Z,101611.88
2018-12-17T09:48:12.652Z,101605.06
2018-12-17T09:50:38.722Z,101604.77
2018-12-17T09:53:04.796Z,101606.94
2018-12-17T09:55:30.736Z,101600.70
2018-12-17T09:57:56.739Z,101606.61
2018-12-17T10:00:25.646Z,101605.78
2018-12-17T10:02:50.624Z,101603.06
2018-12-17T10:05:16.696Z,101601.42
2018-12-17T10:07:42.672Z,101607.89
2018-12-17T10:10:08.600Z,101602.16
2018-12-17T10:12:34.641Z,101605.67
2018-12-17T10:15:00.638Z,101598.91
2018-12-17T10:17:26.684Z,101598.08
2018-12-17T10:19:52.694Z,101595.63
2018-12-17T10:22:18.734Z,101596.73
2018-12-17T10:24:44.741Z,101590.80
2018-12-17T10:27:10.777Z,101599.96
2018-12-17T10:29:36.780Z,101599.97
2018-12-17T10:32:02.732Z,101599.44
2018-12-17T10:34:28.641Z,101592.69
2018-12-17T10:36:54.664Z,101590.80
2018-12-17T10:39:20.665Z,101592.15
2018-12-17T10:41:46.614Z,101587.55
2018-12-17T10:44:12.717Z,101589.69
2018-12-17T10:46:38.757Z,101588.09
2018-12-17T10:49:04.761Z,101589.73
2018-12-17T10:51:30.690Z,101587.84
2018-12-17T10:53:56.725Z,101585.67
2018-12-17T10:56:22.720Z,101584.08
2018-12-17T10:58:48.672Z,101590.03
2018-12-17T11:01:14.675Z,101586.78
2018-12-17T11:03:40.716Z,101594.08
2018-12-17T11:12:52.552Z,101593.50
2018-12-17T11:15:18.557Z,101597.31
2018-12-17T11:17:44.785Z,101599.45
2018-12-17T11:20:10.908Z,101599.73
2018-12-17T11:22:37.076Z,101591.05
2018-12-17T11:25:03.173Z,101594.03
2018-12-17T11:27:29.181Z,101577.80
2018-12-17T11:29:55.217Z,101593.20
2018-12-17T11:32:21.225Z,101592.34
2018-12-17T11:34:47.164Z,101584.22
2018-12-17T11:37:13.164Z,101579.37
2018-12-17T11:39:39.112Z,101576.66
2018-12-17T11:42:05.103Z,101582.35
2018-12-17T11:44:31.069Z,101588.82
2018-12-17T11:46:57.163Z,101584.72
2018-12-17T11:49:23.204Z,101588.78
2018-12-17T11:51:49.201Z,101587.90
2018-12-17T11:54:15.245Z,101586.78
2018-12-17T11:57:44.920Z,101588.06
2018-12-17T12:00:10.892Z,101592.30
2018-12-17T12:02:36.984Z,101589.54
2018-12-17T12:05:02.924Z,101595.72
2018-12-17T12:07:28.933Z,101600.12
2018-12-17T12:09:54.875Z,101591.30
2018-12-17T12:12:20.876Z,101595.08
2018-12-17T12:14:46.917Z,101589.17
2018-12-17T12:17:12.917Z,101591.31
2018-12-17T12:19:38.880Z,101597.54
2018-12-17T12:22:04.856Z,101598.59
2018-12-17T12:24:30.904Z,101590.38
